Weather reports worldwide

Advertisment
Cartagena, Spain (8434): temperature & dewpoint: 17.03.2019 10:00:00 - 23.03.2019 10:00:00 (CET)Cartagena, Spain (8434): wind speed & gusts: 17.03.2019 10:00:00 - 23.03.2019 10:00:00 (CET)Cartagena, Spain (8434): wind direction: 17.03.2019 10:00:00 - 23.03.2019 10:00:00 (CET)Cartagena, Spain (8434): precipitation: 17.03.2019 10:00:00 - 23.03.2019 10:00:00 (CET)
Date & Time tt [°C] td [°C] ff [km/h] ff [kn] fx [km/h] fx [kn] dd rr [mm]
23.03.2019 10:00:00 12,9 10,3 6 3 13 7 N 2,1
23.03.2019 09:00:00 13,5 9,7 6 3 15 8 N 0,0
23.03.2019 08:00:00 13,3 9,0 4 2 12 7 N 0,0
23.03.2019 07:00:00 13,2 8,1 4 2 9 5 NNW -
23.03.2019 06:00:00 13,4 8,1 4 2 13 7 NW 0,0
23.03.2019 05:00:00 14,3 8,5 3 2 16 8 NNE 0,0
23.03.2019 04:00:00 14,1 7,9 5 3 12 6 NE 0,0
23.03.2019 03:00:00 14,4 7,9 3 2 8 5 NNW 0,0
23.03.2019 02:00:00 14,5 7,6 4 2 9 5 NNW 0,0
23.03.2019 01:00:00 14,7 7,5 3 2 9 5 NW -
23.03.2019 00:00:00 15,3 7,8 4 2 13 7 N 0,0
22.03.2019 23:00:00 15,5 7,8 5 3 14 8 NE 0,0
22.03.2019 22:00:00 15,2 7,7 2 1 8 5 N 0,0
22.03.2019 21:00:00 15,6 7,4 4 2 19 10 NE 0,0
22.03.2019 20:00:00 15,9 7,7 3 2 22 12 N 0,0
22.03.2019 19:00:00 16,4 7,4 7 4 25 14 NE -
22.03.2019 18:00:00 16,8 7,2 10 6 24 13 ENE 0,0
22.03.2019 17:00:00 17,6 6,2 4 2 24 13 ENE 0,0
22.03.2019 16:00:00 17,4 5,4 10 5 27 15 NE 0,0
22.03.2019 15:00:00 17,6 4,9 10 5 22 12 ENE 0,0
22.03.2019 14:00:00 17,6 5,6 6 4 18 10 NE 0,0
22.03.2019 13:00:00 17,2 5,8 3 1 16 9 NNE -
22.03.2019 12:00:00 16,3 6,2 6 3 24 13 ENE 0,0
22.03.2019 11:00:00 15,4 5,9 7 4 18 10 NNE 0,0
22.03.2019 10:00:00 13,5 4,9 8 4 18 10 NNW 0,0
22.03.2019 09:00:00 11,7 4,7 6 4 14 7 NNW 0,0
22.03.2019 08:00:00 9,9 3,2 5 3 13 7 NW 0,0
22.03.2019 07:00:00 9,7 3,0 5 3 10 6 N -
22.03.2019 06:00:00 9,7 3,0 3 1 11 6 NW 0,0
22.03.2019 05:00:00 9,9 3,2 3 1 13 7 N 0,0
22.03.2019 04:00:00 9,4 3,4 3 1 9 5 WNW 0,0
22.03.2019 03:00:00 9,8 4,0 2 1 11 6 NW 0,0
22.03.2019 02:00:00 9,9 4,7 3 2 10 6 NNW 0,0
22.03.2019 01:00:00 10,5 5,1 5 3 13 7 NW -
22.03.2019 00:00:00 11,6 5,3 6 3 16 9 NW 0,0
21.03.2019 23:00:00 12,8 6,2 7 4 29 16 N 0,0
21.03.2019 22:00:00 13,2 6,1 8 5 23 12 NE 0,0
21.03.2019 21:00:00 13,4 6,1 8 5 25 13 NE 0,0
21.03.2019 20:00:00 13,8 4,9 11 6 29 16 NE 0,0
21.03.2019 19:00:00 14,2 5,0 11 6 37 20 NE -
21.03.2019 18:00:00 14,9 5,2 13 7 34 18 ENE 0,0
21.03.2019 17:00:00 15,5 4,3 15 8 36 20 ENE 0,0
21.03.2019 16:00:00 15,7 3,8 17 9 39 21 ENE 0,0
21.03.2019 15:00:00 15,9 4,0 12 6 42 23 NE 0,0
21.03.2019 14:00:00 15,8 2,9 14 8 40 22 NE 0,0
21.03.2019 13:00:00 15,6 4,7 16 8 35 19 NE -
21.03.2019 12:00:00 15,1 4,2 12 7 27 15 NE 0,0
21.03.2019 11:00:00 14,6 4,3 13 7 27 14 N 0,0
21.03.2019 10:00:00 13,8 4,4 12 6 25 14 N 0,0
21.03.2019 09:00:00 10,8 4,3 9 5 19 10 NNW 0,0
21.03.2019 08:00:00 8,4 3,1 3 1 9 5 NW 0,0
21.03.2019 07:00:00 7,9 2,8 3 1 14 7 NW -
21.03.2019 06:00:00 8,5 2,7 4 2 18 10 NW 0,0
21.03.2019 05:00:00 8,5 3,6 2 1 9 5 NW 0,0
21.03.2019 04:00:00 8,9 3,9 3 1 12 6 NW 0,0
21.03.2019 03:00:00 9,6 4,4 3 2 18 10 N 0,0
21.03.2019 02:00:00 10,3 4,9 5 3 17 9 NNW 0,0
21.03.2019 01:00:00 10,4 5,6 4 2 12 7 N -
21.03.2019 00:00:00 10,1 5,5 3 1 11 6 WNW 0,0
20.03.2019 23:00:00 9,9 5,3 3 2 9 5 NW 0,0
20.03.2019 22:00:00 10,4 5,8 3 2 13 7 N 0,0
20.03.2019 21:00:00 11,3 5,0 5 3 13 7 WNW 0,0
20.03.2019 20:00:00 11,9 4,9 6 3 15 8 N 0,0
20.03.2019 19:00:00 12,7 4,7 7 4 29 16 NNE -
20.03.2019 18:00:00 13,5 4,9 11 6 25 13 ENE 0,0
20.03.2019 17:00:00 13,6 5,3 7 4 31 17 ENE 0,0
20.03.2019 16:00:00 14,0 5,6 13 7 29 16 ENE 0,0
20.03.2019 15:00:00 13,9 5,5 11 6 27 14 NE 0,0
20.03.2019 14:00:00 13,3 6,2 7 4 25 14 NE 0,0
20.03.2019 13:00:00 13,1 7,6 6 4 25 14 N -
20.03.2019 12:00:00 12,4 7,5 8 4 21 11 N 0,2
20.03.2019 11:00:00 11,6 6,9 10 5 23 13 ENE 0,0
20.03.2019 10:00:00 11,9 6,4 6 3 14 7 NNE 0,0
20.03.2019 09:00:00 10,7 6,7 3 2 15 8 NNE 0,0
20.03.2019 08:00:00 9,6 6,5 5 3 13 7 NNW 0,0
20.03.2019 07:00:00 10,1 7,0 3 2 12 7 N -
20.03.2019 06:00:00 9,2 5,6 2 1 8 4 NNW 0,0
20.03.2019 05:00:00 9,6 5,8 1 1 9 5 NW 0,0
20.03.2019 04:00:00 10,0 6,0 3 2 8 5 WNW 0,0
20.03.2019 03:00:00 10,2 5,8 3 2 10 5 WNW 0,0
20.03.2019 02:00:00 10,7 6,3 3 2 7 4 NW 0,0
20.03.2019 01:00:00 11,1 6,5 3 2 8 4 NW -
20.03.2019 00:00:00 11,3 6,2 4 2 10 6 NW 0,0
19.03.2019 23:00:00 11,5 6,2 4 2 10 5 NW 0,0
19.03.2019 22:00:00 12,2 6,3 3 2 8 4 N 0,0
19.03.2019 21:00:00 12,6 6,4 1 0 8 5 E 0,0
19.03.2019 20:00:00 12,8 6,4 1 1 16 8 ENE 0,0
19.03.2019 19:00:00 13,3 6,9 8 4 23 12 ENE -
19.03.2019 18:00:00 13,9 6,5 8 4 23 12 ENE 0,0
19.03.2019 17:00:00 14,7 5,8 8 4 22 12 ENE 0,0
19.03.2019 16:00:00 14,8 7,6 6 3 22 12 E 0,0
19.03.2019 15:00:00 14,7 7,7 8 5 24 13 E 0,0
19.03.2019 14:00:00 15,7 6,2 9 5 21 11 ENE 0,0
19.03.2019 13:00:00 14,9 8,4 8 4 17 9 N -
19.03.2019 12:00:00 13,4 10,2 4 2 15 8 NE 0,0
19.03.2019 11:00:00 11,9 10,1 6 3 10 5 NNE 1,7
19.03.2019 10:00:00 11,3 8,9 6 3 14 8 NNE 0,4
19.03.2019 09:00:00 10,9 8,1 2 1 8 4 NW 0,4
19.03.2019 08:00:00 10,6 7,8 1 1 4 2 NE 0,0
19.03.2019 07:00:00 10,3 7,4 1 1 5 3 WNW -
19.03.2019 06:00:00 10,7 7,6 1 1 4 2 NNE 0,0
19.03.2019 05:00:00 10,8 7,3 0 0 3 2 N 0,0
19.03.2019 04:00:00 11,3 7,6 1 1 4 2 NE 0,0
19.03.2019 03:00:00 11,4 7,5 0 0 5 3 NNE 0,0
19.03.2019 02:00:00 11,9 8,0 1 0 4 2 NE 0,0
19.03.2019 01:00:00 12,1 8,0 1 1 6 4 ENE -
19.03.2019 00:00:00 12,3 8,2 4 2 11 6 N 0,0
18.03.2019 23:00:00 12,5 8,4 4 2 10 5 NW 0,0
18.03.2019 22:00:00 13,3 9,0 3 2 6 3 N 0,0
18.03.2019 21:00:00 13,5 9,0 1 1 9 5 NNE 0,0
18.03.2019 20:00:00 13,8 8,9 4 2 15 8 NE 0,0
18.03.2019 19:00:00 14,3 8,9 6 4 22 12 NE -
18.03.2019 18:00:00 14,7 8,2 11 6 22 12 ENE 0,0
18.03.2019 17:00:00 15,8 9,0 9 5 24 13 NE 0,0
18.03.2019 16:00:00 15,9 8,9 11 6 32 17 NE 0,0
18.03.2019 15:00:00 16,9 9,1 8 4 24 13 NE 0,0
18.03.2019 14:00:00 16,2 8,7 10 5 26 14 ENE 0,0
18.03.2019 13:00:00 16,0 9,4 11 6 26 14 ENE -
18.03.2019 12:00:00 15,7 9,4 9 5 28 15 NE 0,0
18.03.2019 11:00:00 15,4 9,1 9 5 31 17 NE 0,0
18.03.2019 10:00:00 15,2 9,8 10 5 35 19 NE 0,0
18.03.2019 09:00:00 14,8 9,6 10 5 34 18 ENE 0,0
18.03.2019 08:00:00 14,8 10,2 6 4 29 16 NE 0,0
18.03.2019 07:00:00 14,8 10,0 13 7 32 17 ENE -
18.03.2019 06:00:00 15,1 10,7 11 6 32 17 NE 0,0
18.03.2019 05:00:00 14,9 11,3 9 5 34 18 NE 0,0
18.03.2019 04:00:00 15,7 9,4 9 5 42 23 NE 0,0
18.03.2019 03:00:00 16,3 7,8 13 7 35 19 NNE 0,0
18.03.2019 02:00:00 16,7 8,2 15 8 39 21 NE 0,0
18.03.2019 01:00:00 16,8 8,8 11 6 32 17 NNE -
18.03.2019 00:00:00 14,7 9,5 3 1 13 7 NE 0,0
17.03.2019 23:00:00 15,4 12,9 4 2 5 3 NNE 0,0
17.03.2019 22:00:00 16,0 13,1 1 1 6 4 S 0,0
17.03.2019 21:00:00 16,4 13,1 4 2 14 8 S 0,0
17.03.2019 20:00:00 16,6 13,1 3 2 16 9 SE 0,0
17.03.2019 19:00:00 16,9 13,0 8 4 22 12 SSE -
17.03.2019 18:00:00 19,2 11,3 6 4 27 15 SSW 0,0
17.03.2019 17:00:00 18,3 12,3 14 8 31 17 S 0,0
17.03.2019 16:00:00 18,3 11,6 17 9 33 18 S 0,0
17.03.2019 15:00:00 18,6 13,0 10 6 29 15 S 0,0
17.03.2019 14:00:00 18,1 12,1 10 5 25 13 SSE 0,0
17.03.2019 13:00:00 17,3 11,1 11 6 25 14 SSE -
17.03.2019 12:00:00 17,3 10,7 8 5 22 12 SSE 0,0
17.03.2019 11:00:00 16,8 11,1 7 4 19 11 SSE 0,0
17.03.2019 10:00:00 16,3 11,3 6 3 21 11 SSE 0,0

tt = temperature
td = dewpoint
ff = wind speed
fx = gusts
dd = wind direction
rr = precipitation

Next stations